sensor_id;sensor_type;location;lat;lon;timestamp;pressure;altitude;pressure_sealevel;temperature;humidity
44765;BME280;30484;52.382;5.260;2023-05-23T00:01:15;102060.50;;;17.92;100.00
44765;BME280;30484;52.382;5.260;2023-05-23T00:03:45;102063.13;;;17.63;100.00
44765;BME280;30484;52.382;5.260;2023-05-23T00:06:20;102073.66;;;17.82;100.00
44765;BME280;30484;52.382;5.260;2023-05-23T00:08:51;102070.91;;;18.13;100.00
44765;BME280;30484;52.382;5.260;2023-05-23T00:11:22;102082.72;;;17.97;100.00
44765;BME280;30484;52.382;5.260;2023-05-23T00:13:53;102077.38;;;17.51;100.00
44765;BME280;30484;52.382;5.260;2023-05-23T00:16:24;102068.41;;;17.95;100.00
44765;BME280;30484;52.382;5.260;2023-05-23T00:18:53;102070.25;;;17.64;100.00
44765;BME280;30484;52.382;5.260;2023-05-23T00:21:26;102069.78;;;17.57;100.00
44765;BME280;30484;52.382;5.260;2023-05-23T00:23:57;102073.81;;;17.34;100.00
44765;BME280;30484;52.382;5.260;2023-05-23T00:26:26;102072.31;;;17.75;100.00
44765;BME280;30484;52.382;5.260;2023-05-23T00:28:57;102066.19;;;17.71;100.00
44765;BME280;30484;52.382;5.260;2023-05-23T00:31:26;102066.91;;;17.30;100.00
44765;BME280;30484;52.382;5.260;2023-05-23T00:33:59;102068.03;;;17.26;100.00
44765;BME280;30484;52.382;5.260;2023-05-23T00:36:31;102077.59;;;17.32;100.00
44765;BME280;30484;52.382;5.260;2023-05-23T00:39:04;102078.31;;;17.50;100.00
44765;BME280;30484;52.382;5.260;2023-05-23T00:41:34;102088.94;;;17.53;100.00
44765;BME280;30484;52.382;5.260;2023-05-23T00:44:10;102075.50;;;17.67;100.00
44765;BME280;30484;52.382;5.260;2023-05-23T00:46:40;102087.44;;;17.63;100.00
44765;BME280;30484;52.382;5.260;2023-05-23T00:49:13;102079.34;;;17.63;100.00
44765;BME280;30484;52.382;5.260;2023-05-23T00:51:49;102074.66;;;17.51;100.00
44765;BME280;30484;52.382;5.260;2023-05-23T00:54:23;102073.06;;;17.32;100.00
44765;BME280;30484;52.382;5.260;2023-05-23T00:57:00;102084.28;;;17.40;100.00
44765;BME280;30484;52.382;5.260;2023-05-23T00:59:30;102078.75;;;17.28;100.00
44765;BME280;30484;52.382;5.260;2023-05-23T01:02:00;102078.34;;;17.64;100.00
44765;BME280;30484;52.382;5.260;2023-05-23T01:04:31;102088.75;;;17.41;100.00
44765;BME280;30484;52.382;5.260;2023-05-23T01:07:03;102088.47;;;17.46;100.00
44765;BME280;30484;52.382;5.260;2023-05-23T01:09:34;102100.53;;;17.08;100.00
44765;BME280;30484;52.382;5.260;2023-05-23T01:12:18;102101.63;;;17.67;100.00
44765;BME280;30484;52.382;5.260;2023-05-23T01:15:00;102082.25;;;17.44;100.00
44765;BME280;30484;52.382;5.260;2023-05-23T01:17:38;102074.16;;;17.44;100.00
44765;BME280;30484;52.382;5.260;2023-05-23T01:20:12;102079.78;;;17.25;100.00
44765;BME280;30484;52.382;5.260;2023-05-23T01:23:23;102085.28;;;17.23;100.00
44765;BME280;30484;52.382;5.260;2023-05-23T01:26:12;102093.53;;;17.67;100.00
44765;BME280;30484;52.382;5.260;2023-05-23T01:28:53;102098.69;;;17.55;100.00
44765;BME280;30484;52.382;5.260;2023-05-23T01:31:24;102100.88;;;17.65;100.00
44765;BME280;30484;52.382;5.260;2023-05-23T01:33:58;102096.19;;;17.22;100.00
44765;BME280;30484;52.382;5.260;2023-05-23T01:36:31;102089.69;;;17.40;100.00
44765;BME280;30484;52.382;5.260;2023-05-23T01:39:01;102086.16;;;17.54;100.00
44765;BME280;30484;52.382;5.260;2023-05-23T01:41:34;102092.81;;;17.49;100.00
44765;BME280;30484;52.382;5.260;2023-05-23T01:44:06;102088.22;;;17.65;100.00
44765;BME280;30484;52.382;5.260;2023-05-23T01:46:37;102092.47;;;17.69;100.00
44765;BME280;30484;52.382;5.260;2023-05-23T01:49:11;102095.31;;;17.05;100.00
44765;BME280;30484;52.382;5.260;2023-05-23T01:51:41;102089.25;;;17.02;100.00
44765;BME280;30484;52.382;5.260;2023-05-23T01:54:12;102091.13;;;17.32;100.00
44765;BME280;30484;52.382;5.260;2023-05-23T01:56:45;102094.75;;;17.31;100.00
44765;BME280;30484;52.382;5.260;2023-05-23T01:59:17;102089.72;;;17.24;100.00
44765;BME280;30484;52.382;5.260;2023-05-23T02:01:48;102097.78;;;17.40;100.00
44765;BME280;30484;52.382;5.260;2023-05-23T02:04:17;102091.72;;;17.21;100.00
44765;BME280;30484;52.382;5.260;2023-05-23T02:06:47;102094.09;;;17.57;100.00
44765;BME280;30484;52.382;5.260;2023-05-23T02:09:20;102086.53;;;17.48;100.00
44765;BME280;30484;52.382;5.260;2023-05-23T02:11:49;102095.56;;;17.63;100.00
44765;BME280;30484;52.382;5.260;2023-05-23T02:14:22;102099.66;;;17.24;100.00
44765;BME280;30484;52.382;5.260;2023-05-23T02:16:53;102104.16;;;17.39;100.00
44765;BME280;30484;52.382;5.260;2023-05-23T02:19:25;102105.94;;;17.55;100.00
44765;BME280;30484;52.382;5.260;2023-05-23T02:21:56;102115.22;;;16.87;100.00
44765;BME280;30484;52.382;5.260;2023-05-23T02:24:26;102115.56;;;17.45;100.00
44765;BME280;30484;52.382;5.260;2023-05-23T02:26:56;102116.84;;;17.53;100.00
44765;BME280;30484;52.382;5.260;2023-05-23T02:29:28;102118.84;;;17.50;100.00
44765;BME280;30484;52.382;5.260;2023-05-23T02:32:00;102123.28;;;17.20;100.00
44765;BME280;30484;52.382;5.260;2023-05-23T02:34:30;102125.16;;;17.50;100.00
44765;BME280;30484;52.382;5.260;2023-05-23T02:36:59;102125.81;;;17.07;100.00
44765;BME280;30484;52.382;5.260;2023-05-23T02:39:29;102127.84;;;17.50;100.00
44765;BME280;30484;52.382;5.260;2023-05-23T02:41:59;102125.00;;;17.37;100.00
44765;BME280;30484;52.382;5.260;2023-05-23T02:44:32;102131.13;;;17.86;100.00
44765;BME280;30484;52.382;5.260;2023-05-23T02:47:02;102135.47;;;17.58;100.00
44765;BME280;30484;52.382;5.260;2023-05-23T02:49:31;102137.72;;;17.66;100.00
44765;BME280;30484;52.382;5.260;2023-05-23T02:52:01;102134.84;;;17.69;100.00
44765;BME280;30484;52.382;5.260;2023-05-23T02:54:31;102141.69;;;17.60;100.00
44765;BME280;30484;52.382;5.260;2023-05-23T02:57:03;102136.66;;;17.68;100.00
44765;BME280;30484;52.382;5.260;2023-05-23T02:59:36;102142.53;;;17.30;100.00
44765;BME280;30484;52.382;5.260;2023-05-23T03:02:07;102142.53;;;17.30;100.00
44765;BME280;30484;52.382;5.260;2023-05-23T03:04:38;102144.97;;;17.19;100.00
44765;BME280;30484;52.382;5.260;2023-05-23T03:07:07;102132.75;;;17.28;100.00
44765;BME280;30484;52.382;5.260;2023-05-23T03:09:50;102140.63;;;17.16;100.00
44765;BME280;30484;52.382;5.260;2023-05-23T03:12:24;102139.03;;;17.28;100.00
44765;BME280;30484;52.382;5.260;2023-05-23T03:14:58;102140.44;;;17.03;100.00
44765;BME280;30484;52.382;5.260;2023-05-23T03:17:27;102145.09;;;17.48;100.00
44765;BME280;30484;52.382;5.260;2023-05-23T03:19:56;102144.97;;;17.19;100.00
44765;BME280;30484;52.382;5.260;2023-05-23T03:22:26;102144.06;;;17.34;100.00
44765;BME280;30484;52.382;5.260;2023-05-23T03:24:56;102150.41;;;16.85;100.00
44765;BME280;30484;52.382;5.260;2023-05-23T03:27:25;102156.66;;;17.03;100.00
44765;BME280;30484;52.382;5.260;2023-05-23T03:29:56;102157.34;;;16.58;100.00
44765;BME280;30484;52.382;5.260;2023-05-23T03:32:27;102159.16;;;17.06;100.00
44765;BME280;30484;52.382;5.260;2023-05-23T03:34:59;102158.44;;;16.87;100.00
44765;BME280;30484;52.382;5.260;2023-05-23T03:37:28;102149.25;;;17.23;100.00
44765;BME280;30484;52.382;5.260;2023-05-23T03:39:59;102149.09;;;16.77;100.00
44765;BME280;30484;52.382;5.260;2023-05-23T03:42:29;102150.91;;;16.94;100.00
44765;BME280;30484;52.382;5.260;2023-05-23T03:45:01;102157.00;;;16.64;100.00
44765;BME280;30484;52.382;5.260;2023-05-23T03:47:33;102162.69;;;16.75;100.00
44765;BME280;30484;52.382;5.260;2023-05-23T03:50:03;102162.88;;;16.72;100.00
44765;BME280;30484;52.382;5.260;2023-05-23T03:52:32;102157.75;;;16.83;100.00
44765;BME280;30484;52.382;5.260;2023-05-23T03:55:04;102161.63;;;16.62;100.00
44765;BME280;30484;52.382;5.260;2023-05-23T03:57:38;102166.06;;;16.63;100.00
44765;BME280;30484;52.382;5.260;2023-05-23T04:00:11;102179.34;;;16.50;100.00
44765;BME280;30484;52.382;5.260;2023-05-23T04:02:41;102177.75;;;16.63;100.00
44765;BME280;30484;52.382;5.260;2023-05-23T04:05:11;102173.19;;;16.64;100.00
44765;BME280;30484;52.382;5.260;2023-05-23T04:07:42;102179.97;;;16.55;100.00
44765;BME280;30484;52.382;5.260;2023-05-23T04:10:20;102183.59;;;16.87;100.00
44765;BME280;30484;52.382;5.260;2023-05-23T04:12:51;102189.53;;;16.45;100.00
44765;BME280;30484;52.382;5.260;2023-05-23T04:15:22;102198.06;;;16.02;100.00
44765;BME280;30484;52.382;5.260;2023-05-23T04:17:52;102182.94;;;16.33;100.00
44765;BME280;30484;52.382;5.260;2023-05-23T04:20:27;102192.78;;;16.34;100.00
44765;BME280;30484;52.382;5.260;2023-05-23T04:22:58;102207.22;;;16.33;100.00
44765;BME280;30484;52.382;5.260;2023-05-23T04:25:27;102210.66;;;16.19;100.00
44765;BME280;30484;52.382;5.260;2023-05-23T04:27:56;102209.09;;;16.48;100.00
44765;BME280;30484;52.382;5.260;2023-05-23T04:30:28;102213.19;;;16.22;100.00
44765;BME280;30484;52.382;5.260;2023-05-23T04:33:00;102205.53;;;16.30;100.00
44765;BME280;30484;52.382;5.260;2023-05-23T04:35:34;102208.78;;;16.37;100.00
44765;BME280;30484;52.382;5.260;2023-05-23T04:38:12;102205.72;;;16.45;100.00
44765;BME280;30484;52.382;5.260;2023-05-23T04:40:41;102216.75;;;16.05;100.00
44765;BME280;30484;52.382;5.260;2023-05-23T04:43:10;102211.28;;;16.07;100.00
44765;BME280;30484;52.382;5.260;2023-05-23T04:45:41;102208.75;;;16.03;100.00
44765;BME280;30484;52.382;5.260;2023-05-23T04:48:13;102222.69;;;16.29;100.00
44765;BME280;30484;52.382;5.260;2023-05-23T04:50:43;102223.00;;;15.88;100.00
44765;BME280;30484;52.382;5.260;2023-05-23T04:53:15;102223.59;;;15.95;100.00
44765;BME280;30484;52.382;5.260;2023-05-23T04:55:44;102227.53;;;16.05;100.00
44765;BME280;30484;52.382;5.260;2023-05-23T04:58:15;102228.06;;;16.12;100.00
44765;BME280;30484;52.382;5.260;2023-05-23T05:00:46;102225.72;;;16.05;100.00
44765;BME280;30484;52.382;5.260;2023-05-23T05:03:17;102229.22;;;16.08;100.00
44765;BME280;30484;52.382;5.260;2023-05-23T05:05:48;102224.59;;;16.10;100.00
44765;BME280;30484;52.382;5.260;2023-05-23T05:08:19;102245.03;;;16.49;100.00
44765;BME280;30484;52.382;5.260;2023-05-23T05:10:49;102243.22;;;16.49;100.00
44765;BME280;30484;52.382;5.260;2023-05-23T05:13:18;102247.91;;;16.46;100.00
44765;BME280;30484;52.382;5.260;2023-05-23T05:15:51;102264.53;;;16.71;100.00
44765;BME280;30484;52.382;5.260;2023-05-23T05:18:28;102259.97;;;16.38;100.00
44765;BME280;30484;52.382;5.260;2023-05-23T05:21:01;102267.25;;;16.54;100.00
44765;BME280;30484;52.382;5.260;2023-05-23T05:23:31;102268.31;;;16.34;100.00
44765;BME280;30484;52.382;5.260;2023-05-23T05:26:01;102282.97;;;16.63;100.00
44765;BME280;30484;52.382;5.260;2023-05-23T05:28:31;102262.13;;;16.83;100.00
44765;BME280;30484;52.382;5.260;2023-05-23T05:31:03;102292.50;;;16.35;100.00
44765;BME280;30484;52.382;5.260;2023-05-23T05:33:33;102296.63;;;16.43;100.00
44765;BME280;30484;52.382;5.260;2023-05-23T05:36:09;102290.03;;;16.31;100.00
44765;BME280;30484;52.382;5.260;2023-05-23T05:38:39;102297.00;;;16.52;100.00
44765;BME280;30484;52.382;5.260;2023-05-23T05:41:09;102296.88;;;16.20;100.00
44765;BME280;30484;52.382;5.260;2023-05-23T05:43:44;102303.75;;;16.44;100.00
44765;BME280;30484;52.382;5.260;2023-05-23T05:46:16;102283.22;;;16.41;100.00
44765;BME280;30484;52.382;5.260;2023-05-23T05:48:49;102299.66;;;16.19;100.00
44765;BME280;30484;52.382;5.260;2023-05-23T05:51:27;102299.72;;;16.35;100.00
44765;BME280;30484;52.382;5.260;2023-05-23T05:53:59;102301.44;;;16.36;100.00
44765;BME280;30484;52.382;5.260;2023-05-23T05:56:32;102308.06;;;16.48;100.00
44765;BME280;30484;52.382;5.260;2023-05-23T05:59:00;102296.63;;;16.43;100.00
44765;BME280;30484;52.382;5.260;2023-05-23T06:01:31;102305.25;;;16.67;100.00
44765;BME280;30484;52.382;5.260;2023-05-23T06:04:03;102307.25;;;16.63;100.00
44765;BME280;30484;52.382;5.260;2023-05-23T06:06:34;102305.34;;;16.48;100.00
44765;BME280;30484;52.382;5.260;2023-05-23T06:09:04;102299.06;;;16.12;100.00
44765;BME280;30484;52.382;5.260;2023-05-23T06:11:36;102306.47;;;16.44;100.00
44765;BME280;30484;52.382;5.260;2023-05-23T06:14:08;102312.41;;;16.33;100.00
44765;BME280;30484;52.382;5.260;2023-05-23T06:16:41;102313.41;;;16.30;100.00
44765;BME280;30484;52.382;5.260;2023-05-23T06:19:23;102315.88;;;16.17;100.00
44765;BME280;30484;52.382;5.260;2023-05-23T06:22:01;102323.84;;;16.20;100.00
44765;BME280;30484;52.382;5.260;2023-05-23T06:24:33;102305.75;;;15.86;100.00
44765;BME280;30484;52.382;5.260;2023-05-23T06:27:06;102333.38;;;16.09;100.00
44765;BME280;30484;52.382;5.260;2023-05-23T06:29:38;102328.81;;;16.11;100.00
44765;BME280;30484;52.382;5.260;2023-05-23T06:32:09;102327.22;;;16.07;100.00
44765;BME280;30484;52.382;5.260;2023-05-23T06:34:41;102330.44;;;15.96;100.00
44765;BME280;30484;52.382;5.260;2023-05-23T06:37:10;102320.38;;;15.99;100.00
44765;BME280;30484;52.382;5.260;2023-05-23T06:39:44;102335.94;;;16.12;100.00
44765;BME280;30484;52.382;5.260;2023-05-23T06:42:15;102332.13;;;16.16;100.00
44765;BME280;30484;52.382;5.260;2023-05-23T06:44:49;102333.38;;;16.09;100.00
44765;BME280;30484;52.382;5.260;2023-05-23T06:47:20;102325.97;;;16.31;100.00
44765;BME280;30484;52.382;5.260;2023-05-23T06:49:52;102337.66;;;16.32;100.00
44765;BME280;30484;52.382;5.260;2023-05-23T06:52:23;102330.34;;;16.34;100.00
44765;BME280;30484;52.382;5.260;2023-05-23T06:54:55;102327.78;;;16.13;100.00
44765;BME280;30484;52.382;5.260;2023-05-23T06:57:27;102332.34;;;16.48;100.00
44765;BME280;30484;52.382;5.260;2023-05-23T06:59:57;102334.53;;;16.57;100.00
44765;BME280;30484;52.382;5.260;2023-05-23T07:02:32;102335.06;;;16.81;100.00
44765;BME280;30484;52.382;5.260;2023-05-23T07:05:01;102339.63;;;16.81;100.00
44765;BME280;30484;52.382;5.260;2023-05-23T07:07:31;102341.78;;;17.25;100.00
44765;BME280;30484;52.382;5.260;2023-05-23T07:10:03;102338.06;;;17.43;100.00
44765;BME280;30484;52.382;5.260;2023-05-23T07:12:38;102348.75;;;17.13;100.00
44765;BME280;30484;52.382;5.260;2023-05-23T07:15:11;102350.91;;;16.89;100.00
44765;BME280;30484;52.382;5.260;2023-05-23T07:17:47;102345.47;;;17.40;100.00
44765;BME280;30484;52.382;5.260;2023-05-23T07:20:18;102353.53;;;17.57;100.00
44765;BME280;30484;52.382;5.260;2023-05-23T07:22:49;102369.56;;;17.27;100.00
44765;BME280;30484;52.382;5.260;2023-05-23T07:25:19;102360.53;;;17.44;100.00
44765;BME280;30484;52.382;5.260;2023-05-23T07:27:51;102361.72;;;17.88;100.00
44765;BME280;30484;52.382;5.260;2023-05-23T07:30:21;102359.22;;;17.35;100.00
44765;BME280;30484;52.382;5.260;2023-05-23T07:32:53;102372.72;;;17.85;100.00
44765;BME280;30484;52.382;5.260;2023-05-23T07:35:23;102347.16;;;17.74;100.00
44765;BME280;30484;52.382;5.260;2023-05-23T07:37:57;102352.03;;;17.68;100.00
44765;BME280;30484;52.382;5.260;2023-05-23T07:40:29;102364.50;;;18.18;100.00
44765;BME280;30484;52.382;5.260;2023-05-23T07:43:04;102366.31;;;17.54;100.00
44765;BME280;30484;52.382;5.260;2023-05-23T07:45:35;102370.69;;;18.36;100.00
44765;BME280;30484;52.382;5.260;2023-05-23T07:48:08;102364.56;;;18.33;100.00
44765;BME280;30484;52.382;5.260;2023-05-23T07:50:40;102371.97;;;18.45;100.00
44765;BME280;30484;52.382;5.260;2023-05-23T07:53:11;102360.66;;;18.83;100.00
44765;BME280;30484;52.382;5.260;2023-05-23T07:55:41;102372.25;;;18.40;100.00
44765;BME280;30484;52.382;5.260;2023-05-23T07:58:10;102376.09;;;18.36;100.00
44765;BME280;30484;52.382;5.260;2023-05-23T08:00:40;102378.38;;;18.28;100.00
44765;BME280;30484;52.382;5.260;2023-05-23T08:03:12;102383.28;;;18.05;100.00
44765;BME280;30484;52.382;5.260;2023-05-23T08:05:47;102385.91;;;18.23;100.00
44765;BME280;30484;52.382;5.260;2023-05-23T08:08:17;102387.44;;;18.43;100.00
44765;BME280;30484;52.382;5.260;2023-05-23T08:10:48;102379.69;;;18.21;100.00
44765;BME280;30484;52.382;5.260;2023-05-23T08:13:26;102380.22;;;18.58;100.00
44765;BME280;30484;52.382;5.260;2023-05-23T08:15:55;102388.69;;;18.82;100.00
44765;BME280;30484;52.382;5.260;2023-05-23T08:18:26;102390.25;;;18.86;100.00
44765;BME280;30484;52.382;5.260;2023-05-23T08:20:58;102393.72;;;18.43;100.00
44765;BME280;30484;52.382;5.260;2023-05-23T08:23:30;102390.03;;;19.05;100.00
44765;BME280;30484;52.382;5.260;2023-05-23T08:26:00;102391.69;;;19.08;100.00
44765;BME280;30484;52.382;5.260;2023-05-23T08:28:29;102397.22;;;19.64;100.00
44765;BME280;30484;52.382;5.260;2023-05-23T08:31:01;102401.25;;;18.99;100.00
44765;BME280;30484;52.382;5.260;2023-05-23T08:33:35;102407.59;;;19.43;100.00
44765;BME280;30484;52.382;5.260;2023-05-23T08:36:05;102402.06;;;19.44;100.00
44765;BME280;30484;52.382;5.260;2023-05-23T08:38:34;102405.94;;;19.26;100.00
44765;BME280;30484;52.382;5.260;2023-05-23T08:41:05;102400.09;;;19.61;100.00
44765;BME280;30484;52.382;5.260;2023-05-23T08:43:42;102405.34;;;19.35;100.00
44765;BME280;30484;52.382;5.260;2023-05-23T08:46:16;102399.06;;;19.49;100.00
44765;BME280;30484;52.382;5.260;2023-05-23T08:48:55;102409.16;;;19.33;100.00
44765;BME280;30484;52.382;5.260;2023-05-23T08:51:28;102419.00;;;19.34;100.00
44765;BME280;30484;52.382;5.260;2023-05-23T08:53:59;102412.31;;;19.25;100.00
44765;BME280;30484;52.382;5.260;2023-05-23T08:56:30;102418.91;;;19.64;100.00
44765;BME280;30484;52.382;5.260;2023-05-23T08:59:02;102416.69;;;19.42;100.00
44765;BME280;30484;52.382;5.260;2023-05-23T09:01:34;102402.72;;;19.19;100.00
44765;BME280;30484;52.382;5.260;2023-05-23T09:04:07;102427.47;;;18.99;100.00
44765;BME280;30484;52.382;5.260;2023-05-23T09:06:38;102440.38;;;19.24;100.00
44765;BME280;30484;52.382;5.260;2023-05-23T09:09:07;102439.22;;;19.28;100.00
44765;BME280;30484;52.382;5.260;2023-05-23T09:11:40;102437.66;;;19.24;100.00
44765;BME280;30484;52.382;5.260;2023-05-23T09:14:14;102437.25;;;18.85;100.00
44765;BME280;30484;52.382;5.260;2023-05-23T09:16:46;102430.09;;;19.14;100.00
44765;BME280;30484;52.382;5.260;2023-05-23T09:19:19;102429.19;;;19.00;100.00
44765;BME280;30484;52.382;5.260;2023-05-23T09:21:54;102438.88;;;18.73;100.00
44765;BME280;30484;52.382;5.260;2023-05-23T09:24:33;102435.75;;;19.26;100.00
44765;BME280;30484;52.382;5.260;2023-05-23T09:27:05;102453.97;;;19.53;100.00
44765;BME280;30484;52.382;5.260;2023-05-23T09:29:37;102449.47;;;20.09;100.00
44765;BME280;30484;52.382;5.260;2023-05-23T09:32:17;102452.22;;;19.52;100.00
44765;BME280;30484;52.382;5.260;2023-05-23T09:35:05;102463.16;;;19.93;100.00
44765;BME280;30484;52.382;5.260;2023-05-23T09:37:37;102455.88;;;20.08;100.00
44765;BME280;30484;52.382;5.260;2023-05-23T09:40:12;102458.78;;;20.20;100.00
44765;BME280;30484;52.382;5.260;2023-05-23T09:42:43;102467.44;;;20.39;100.00
44765;BME280;30484;52.382;5.260;2023-05-23T09:45:18;102462.38;;;20.06;100.00
44765;BME280;30484;52.382;5.260;2023-05-23T09:47:50;102463.44;;;20.03;100.00
44765;BME280;30484;52.382;5.260;2023-05-23T09:50:33;102459.50;;;19.94;100.00
44765;BME280;30484;52.382;5.260;2023-05-23T09:53:03;102470.72;;;20.44;100.00
44765;BME280;30484;52.382;5.260;2023-05-23T09:55:32;102465.97;;;19.48;100.00
44765;BME280;30484;52.382;5.260;2023-05-23T09:58:03;102471.72;;;20.56;100.00
44765;BME280;30484;52.382;5.260;2023-05-23T10:00:32;102464.88;;;20.50;100.00
44765;BME280;30484;52.382;5.260;2023-05-23T10:03:16;102466.47;;;19.98;100.00
44765;BME280;30484;52.382;5.260;2023-05-23T10:05:55;102468.59;;;19.93;100.00
44765;BME280;30484;52.382;5.260;2023-05-23T10:08:38;102476.81;;;19.92;100.00
44765;BME280;30484;52.382;5.260;2023-05-23T10:14:44;102482.78;;;19.39;100.00
44765;BME280;30484;52.382;5.260;2023-05-23T10:17:20;102465.00;;;20.07;100.00
44765;BME280;30484;52.382;5.260;2023-05-23T10:20:02;102484.25;;;20.59;100.00
44765;BME280;30484;52.382;5.260;2023-05-23T10:22:38;102485.59;;;20.24;100.00
44765;BME280;30484;52.382;5.260;2023-05-23T10:25:15;102492.72;;;20.12;100.00
44765;BME280;30484;52.382;5.260;2023-05-23T10:27:48;102485.41;;;20.55;100.00
44765;BME280;30484;52.382;5.260;2023-05-23T10:30:21;102487.47;;;20.24;100.00
44765;BME280;30484;52.382;5.260;2023-05-23T10:32:54;102481.63;;;20.84;100.00
44765;BME280;30484;52.382;5.260;2023-05-23T10:35:41;102488.91;;;21.37;100.00
44765;BME280;30484;52.382;5.260;2023-05-23T10:38:30;102484.75;;;21.06;100.00
44765;BME280;30484;52.382;5.260;2023-05-23T10:41:08;102487.22;;;20.41;100.00
44765;BME280;30484;52.382;5.260;2023-05-23T10:43:50;102489.63;;;20.73;100.00
44765;BME280;30484;52.382;5.260;2023-05-23T10:46:50;102482.50;;;20.58;100.00
44765;BME280;30484;52.382;5.260;2023-05-23T10:49:38;102489.25;;;20.79;100.00
44765;BME280;30484;52.382;5.260;2023-05-23T10:52:10;102482.59;;;21.11;100.00
44765;BME280;30484;52.382;5.260;2023-05-23T10:54:49;102484.56;;;20.81;100.00
44765;BME280;30484;52.382;5.260;2023-05-23T10:57:24;102485.50;;;21.08;100.00
44765;BME280;30484;52.382;5.260;2023-05-23T10:59:58;102500.84;;;21.21;100.00
44765;BME280;30484;52.382;5.260;2023-05-23T11:02:28;102489.91;;;21.62;100.00
44765;BME280;30484;52.382;5.260;2023-05-23T11:05:20;102499.00;;;22.12;100.00
44765;BME280;30484;52.382;5.260;2023-05-23T11:08:09;102496.00;;;22.41;100.00
44765;BME280;30484;52.382;5.260;2023-05-23T11:10:59;102503.44;;;22.26;100.00
44765;BME280;30484;52.382;5.260;2023-05-23T11:13:55;102499.06;;;21.74;100.00
44765;BME280;30484;52.382;5.260;2023-05-23T11:16:28;102497.63;;;21.42;100.00
44765;BME280;30484;52.382;5.260;2023-05-23T11:19:23;102499.16;;;20.93;100.00
44765;BME280;30484;52.382;5.260;2023-05-23T11:22:00;102492.78;;;22.10;100.00
44765;BME280;30484;52.382;5.260;2023-05-23T11:24:52;102499.19;;;22.22;100.00
44765;BME280;30484;52.382;5.260;2023-05-23T11:27:32;102498.84;;;22.27;100.00
44765;BME280;30484;52.382;5.260;2023-05-23T11:30:05;102493.38;;;23.12;100.00
44765;BME280;30484;52.382;5.260;2023-05-23T11:32:40;102505.16;;;22.27;100.00
44765;BME280;30484;52.382;5.260;2023-05-23T11:35:13;102508.94;;;21.87;100.00
44765;BME280;30484;52.382;5.260;2023-05-23T11:37:46;102513.59;;;22.11;100.00
44765;BME280;30484;52.382;5.260;2023-05-23T11:40:27;102514.81;;;21.94;100.00
44765;BME280;30484;52.382;5.260;2023-05-23T11:43:03;102508.28;;;21.45;100.00
44765;BME280;30484;52.382;5.260;2023-05-23T11:45:38;102513.53;;;21.74;100.00
44765;BME280;30484;52.382;5.260;2023-05-23T11:48:12;102512.94;;;21.43;100.00
44765;BME280;30484;52.382;5.260;2023-05-23T11:50:52;102512.88;;;21.83;100.00
44765;BME280;30484;52.382;5.260;2023-05-23T11:53:26;102506.56;;;21.70;100.00
44765;BME280;30484;52.382;5.260;2023-05-23T11:56:00;102504.41;;;22.38;100.00
44765;BME280;30484;52.382;5.260;2023-05-23T11:58:36;102507.38;;;22.35;100.00
44765;BME280;30484;52.382;5.260;2023-05-23T12:01:10;102508.94;;;21.62;100.00
44765;BME280;30484;52.382;5.260;2023-05-23T12:03:49;102504.81;;;22.32;100.00
44765;BME280;30484;52.382;5.260;2023-05-23T12:06:23;102506.16;;;22.26;100.00
44765;BME280;30484;52.382;5.260;2023-05-23T12:08:57;102498.69;;;22.78;100.00
44765;BME280;30484;52.382;5.260;2023-05-23T12:11:31;102502.63;;;22.74;100.00
44765;BME280;30484;52.382;5.260;2023-05-23T12:14:05;102506.41;;;22.10;100.00
44765;BME280;30484;52.382;5.260;2023-05-23T12:16:37;102510.19;;;22.33;100.00
44765;BME280;30484;52.382;5.260;2023-05-23T12:19:08;102507.38;;;22.83;100.00
44765;BME280;30484;52.382;5.260;2023-05-23T12:21:45;102512.28;;;22.78;100.00
44765;BME280;30484;52.382;5.260;2023-05-23T12:24:17;102518.88;;;23.58;100.00
44765;BME280;30484;52.382;5.260;2023-05-23T12:26:51;102514.88;;;23.04;100.00
44765;BME280;30484;52.382;5.260;2023-05-23T12:29:33;102507.44;;;23.30;100.00
44765;BME280;30484;52.382;5.260;2023-05-23T12:32:06;102509.63;;;23.83;100.00
44765;BME280;30484;52.382;5.260;2023-05-23T12:34:40;102509.72;;;24.27;100.00
44765;BME280;30484;52.382;5.260;2023-05-23T12:37:12;102514.06;;;23.84;100.00
44765;BME280;30484;52.382;5.260;2023-05-23T12:39:46;102515.06;;;23.72;100.00
44765;BME280;30484;52.382;5.260;2023-05-23T12:42:17;102509.84;;;24.25;100.00
44765;BME280;30484;52.382;5.260;2023-05-23T12:44:52;102515.31;;;24.14;100.00
44765;BME280;30484;52.382;5.260;2023-05-23T12:47:23;102513.44;;;24.81;100.00
44765;BME280;30484;52.382;5.260;2023-05-23T12:49:54;102521.44;;;25.26;100.00
44765;BME280;30484;52.382;5.260;2023-05-23T12:52:25;102517.34;;;24.78;100.00
44765;BME280;30484;52.382;5.260;2023-05-23T12:54:55;102526.22;;;24.37;100.00
44765;BME280;30484;52.382;5.260;2023-05-23T12:57:25;102527.09;;;24.60;100.00
44765;BME280;30484;52.382;5.260;2023-05-23T12:59:58;102537.13;;;24.48;100.00
44765;BME280;30484;52.382;5.260;2023-05-23T13:02:28;102529.88;;;23.92;100.00
44765;BME280;30484;52.382;5.260;2023-05-23T13:04:59;102527.00;;;24.05;100.00
44765;BME280;30484;52.382;5.260;2023-05-23T13:07:28;102526.97;;;24.39;100.00
44765;BME280;30484;52.382;5.260;2023-05-23T13:09:58;102528.63;;;24.74;100.00
44765;BME280;30484;52.382;5.260;2023-05-23T13:12:28;102536.16;;;24.49;100.00
44765;BME280;30484;52.382;5.260;2023-05-23T13:15:01;102540.59;;;25.26;100.00